Weather at Riga International Airport

Public forecast

Using degrees Celsius for public forecast. Weather courtesy of forecast.io.

Current aviation weather report (METAR) for Riga International Airport

Report is more than 6 hours old.

2022/11/14 15:20 (retrieved 2 years ago)

EVRA 141520Z 15006KT 8000 OVC002 02/02 Q1026 NOSIG

Aviation forecast (TAF) for Riga International Airport

Forecast is more than 12 hours old.

2023/02/22 21:04 (retrieved 1 year ago)

TAF EVRA 222002Z 2221/2321 11005KT CAVOK BECMG 2307/2309 18010KT